Alton Bay, New Hampshire
Current Conditions -  °F | °C
As of 5:15 AM on Friday 21 Nov 2014 (Local Time) from KLCI Reporting Station
Clear Clear  
Wind Chill: 12°   Ceiling: Unl
Heat Index: 25°   Visibility: 10mi
Dew Point: 10°   Wind: 15mph
Humidity: 54%   Direction: 240°WSW
Pressure: 29.88"   Gusts: 22mph
Location:  43.47°N, 71.23°W
Report Text: KLCI 211015Z AUTO 24013G19KT 10SM CLR M04/M12 A2988 RMK AO1
Loading
Personal Weather Stations






























Interactive Weather Map New forecast layout! Learn more

10-Day Weather Forecast

Advertisements
Track Severe Weather on mobile